Time;durP1;ratioP1;P1;durP2;ratioP2;P2;SDS_P1;SDS_P2;PMS_P1;PMS_P2;Temp;Humidity;BMP_temperature;BMP_pressure;BME280_temperature;BME280_humidity;BME280_pressure;Samples;Min_cycle;Max_cycle;Signal;HPM_P1;HPM_P2
2021/11/12 00:14:44;;;;;;;;;;;18.20;72.70;;;;;;5032863;28;19925;-52
2021/11/12 00:17:12;;;;;;;;;;;18.20;72.70;;;;;;5025905;28;19926;-47
2021/11/12 00:19:39;;;;;;;;;;;18.20;72.70;;;;;;5012190;28;20359;-53
2021/11/12 00:22:07;;;;;;;;;;;18.20;72.70;;;;;;5012879;28;20435;-50
2021/11/12 00:24:34;;;;;;;;;;;18.20;72.70;;;;;;5012639;28;19926;-55
2021/11/12 00:27:04;;;;;;;;;;;18.20;72.70;;;;;;5012831;28;19935;-52
2021/11/12 00:29:43;;;;;;;;;;;18.20;72.70;;;;;;5012794;28;19980;-52
2021/11/12 00:32:22;;;;;;;;;;;18.20;72.70;;;;;;5012034;28;19932;-52
2021/11/12 00:40:09;;;;;;;;;;;18.20;72.70;;;;;;5012529;28;19933;-48
2021/11/12 00:45:07;;;;;;;;;;;18.20;72.70;;;;;;5012568;28;19925;-44
2021/11/12 00:55:24;;;;;;;;;;;18.20;72.70;;;;;;5094143;28;19986;-52
2021/11/12 00:57:53;;;;;;;;;;;18.20;72.70;;;;;;5094548;28;19924;-49
2021/11/12 01:00:21;;;;;;;;;;;18.20;72.70;;;;;;5094513;28;20287;-50
2021/11/12 01:02:48;;;;;;;;;;;18.20;72.70;;;;;;5086277;28;20398;-48
2021/11/12 01:05:16;;;;;;;;;;;18.20;72.70;;;;;;5080336;28;19935;-50
2021/11/12 01:07:43;;;;;;;;;;;18.20;72.70;;;;;;5094298;28;19928;-48
2021/11/12 01:10:11;;;;;;;;;;;18.20;72.70;;;;;;5094361;28;19924;-49
2021/11/12 01:12:40;;;;;;;;;;;18.20;72.70;;;;;;5094015;28;19928;-49
2021/11/12 01:15:08;;;;;;;;;;;18.20;72.70;;;;;;5094260;28;20061;-46
2021/11/12 01:17:35;;;;;;;;;;;18.20;72.80;;;;;;5089281;28;19932;-50
2021/11/12 01:20:03;;;;;;;;;;;18.20;72.70;;;;;;5077039;28;20762;-48
2021/11/12 01:22:31;;;;;;;;;;;18.20;72.70;;;;;;5094209;28;19932;-50
2021/11/12 01:24:59;;;;;;;;;;;18.20;72.70;;;;;;5093994;28;19928;-52
2021/11/12 01:27:26;;;;;;;;;;;18.20;72.70;;;;;;5094147;28;19924;-49
2021/11/12 01:29:54;;;;;;;;;;;18.20;72.70;;;;;;5094129;28;19977;-46
2021/11/12 01:32:22;;;;;;;;;;;18.20;72.70;;;;;;5092989;28;19927;-47
2021/11/12 01:34:51;;;;;;;;;;;18.20;72.80;;;;;;5073338;28;19924;-51
2021/11/12 01:37:19;;;;;;;;;;;18.20;72.70;;;;;;5055869;28;19936;-50
2021/11/12 01:39:52;;;;;;;;;;;18.20;72.70;;;;;;5057861;28;19925;-48
2021/11/12 01:42:21;;;;;;;;;;;18.20;72.80;;;;;;5057688;28;19925;-47
2021/11/12 01:44:54;;;;;;;;;;;18.20;72.70;;;;;;5057882;28;19936;-46
2021/11/12 01:47:30;;;;;;;;;;;18.20;72.80;;;;;;5057896;28;19928;-47
2021/11/12 01:50:03;;;;;;;;;;;18.20;72.80;;;;;;5077277;28;20005;-51
2021/11/12 01:52:36;;;;;;;;;;;18.20;72.70;;;;;;5098099;28;19924;-52
2021/11/12 01:55:07;;;;;;;;;;;18.20;72.80;;;;;;5097758;28;19931;-48
2021/11/12 02:00:40;;;;;;;;;;;18.20;72.70;;;;;;5035296;28;20388;-51
2021/11/12 02:03:09;;;;;;;;;;;18.20;72.70;;;;;;5030506;28;20432;-52
2021/11/12 02:05:36;;;;;;;;;;;18.20;72.70;;;;;;5014653;28;19925;-54
2021/11/12 02:08:03;;;;;;;;;;;18.20;72.70;;;;;;5015286;28;19976;-54
2021/11/12 02:10:31;;;;;;;;;;;18.20;72.70;;;;;;5015384;28;19946;-49
2021/11/12 02:15:26;;;;;;;;;;;18.20;72.80;;;;;;5015170;28;19933;-49
2021/11/12 02:18:28;;;;;;;;;;;18.20;72.70;;;;;;5014661;28;19926;-52
2021/11/12 02:21:20;;;;;;;;;;;18.20;72.70;;;;;;5014426;28;20318;-49
2021/11/12 02:24:02;;;;;;;;;;;18.20;72.70;;;;;;5014972;28;20410;-47
2021/11/12 02:26:32;;;;;;;;;;;18.20;72.70;;;;;;5015120;28;19987;-53
2021/11/12 02:29:00;;;;;;;;;;;18.20;72.70;;;;;;5015079;28;19932;-49
2021/11/12 02:31:28;;;;;;;;;;;18.20;72.70;;;;;;5036005;28;19929;-49
2021/11/12 02:33:56;;;;;;;;;;;18.20;72.70;;;;;;5064176;28;20278;-54
2021/11/12 02:36:24;;;;;;;;;;;18.20;72.70;;;;;;5084032;28;19924;-55
2021/11/12 02:38:54;;;;;;;;;;;18.20;72.80;;;;;;5097091;28;20340;-48
2021/11/12 02:41:23;;;;;;;;;;;18.20;72.80;;;;;;5096827;28;19931;-45
2021/11/12 02:43:51;;;;;;;;;;;18.20;72.80;;;;;;5096771;28;20382;-50
2021/11/12 02:46:20;;;;;;;;;;;18.20;72.80;;;;;;5097027;28;19928;-49
2021/11/12 02:48:48;;;;;;;;;;;18.10;72.70;;;;;;5090691;28;19925;-52
2021/11/12 02:51:20;;;;;;;;;;;18.20;72.80;;;;;;5081608;28;19928;-45
2021/11/12 02:53:48;;;;;;;;;;;18.20;72.80;;;;;;5096781;28;20270;-46
2021/11/12 02:56:34;;;;;;;;;;;18.20;72.80;;;;;;5096305;28;20380;-48
2021/11/12 02:59:04;;;;;;;;;;;18.20;72.70;;;;;;5096532;28;19930;-49
2021/11/12 03:01:32;;;;;;;;;;;18.20;72.70;;;;;;5096418;28;20371;-48
2021/11/12 03:04:00;;;;;;;;;;;18.20;72.70;;;;;;5089952;28;19925;-52
2021/11/12 03:06:27;;;;;;;;;;;18.20;72.70;;;;;;5081596;28;20314;-50
2021/11/12 03:08:59;;;;;;;;;;;18.10;72.60;;;;;;5096208;28;19927;-46
2021/11/12 03:11:26;;;;;;;;;;;18.20;72.80;;;;;;5096299;28;19924;-50
2021/11/12 03:13:53;;;;;;;;;;;18.20;72.70;;;;;;5096491;28;19924;-50
2021/11/12 03:16:21;;;;;;;;;;;18.10;72.60;;;;;;5096074;28;19928;-55
2021/11/12 03:18:48;;;;;;;;;;;18.20;72.70;;;;;;5092746;28;20387;-55
2021/11/12 03:21:19;;;;;;;;;;;18.20;72.70;;;;;;5077639;28;19989;-56
2021/11/12 03:29:28;;;;;;;;;;;18.10;72.70;;;;;;5033859;28;19925;-54
2021/11/12 04:40:55;;;;;;;;;;;18.10;72.70;;;;;;5094928;28;20280;-54
2021/11/12 05:51:31;;;;;;;;;;;18.10;72.70;;;;;;5085159;28;19924;-53
2021/11/12 05:56:46;;;;;;;;;;;18.20;72.80;;;;;;5093428;28;20291;-47
2021/11/12 05:59:15;;;;;;;;;;;18.10;72.70;;;;;;5093891;28;20303;-49
2021/11/12 06:01:43;;;;;;;;;;;18.20;72.80;;;;;;5093551;28;19927;-50
2021/11/12 06:04:11;;;;;;;;;;;18.10;72.70;;;;;;5093833;28;19924;-47
2021/11/12 06:06:38;;;;;;;;;;;18.10;72.70;;;;;;5082221;28;19931;-49
2021/11/12 06:09:05;;;;;;;;;;;18.10;72.70;;;;;;5084262;28;19924;-52
2021/11/12 06:11:33;;;;;;;;;;;18.10;72.70;;;;;;5093761;28;19924;-50
2021/11/12 06:14:00;;;;;;;;;;;18.10;72.70;;;;;;5093407;28;20288;-53
2021/11/12 06:16:27;;;;;;;;;;;18.10;72.70;;;;;;5093651;28;19947;-53
2021/11/12 06:18:54;;;;;;;;;;;18.10;72.70;;;;;;5093717;28;19924;-52
2021/11/12 06:21:22;;;;;;;;;;;18.10;72.70;;;;;;5085823;28;20383;-48
2021/11/12 06:23:50;;;;;;;;;;;18.10;72.60;;;;;;5083368;28;19928;-47
2021/11/12 06:26:17;;;;;;;;;;;18.10;72.70;;;;;;5097092;28;20379;-50
2021/11/12 06:28:45;;;;;;;;;;;18.10;72.70;;;;;;5097421;28;20275;-46
2021/11/12 06:31:13;;;;;;;;;;;18.10;72.70;;;;;;5097352;28;19991;-52
2021/11/12 06:33:40;;;;;;;;;;;18.10;72.60;;;;;;5096935;28;20378;-47
2021/11/12 06:36:07;;;;;;;;;;;18.10;72.70;;;;;;5092615;28;20392;-53
2021/11/12 06:38:36;;;;;;;;;;;18.10;72.70;;;;;;5080214;28;19931;-47
2021/11/12 06:41:09;;;;;;;;;;;18.10;72.70;;;;;;5097149;28;19928;-46
2021/11/12 06:43:48;;;;;;;;;;;18.20;72.70;;;;;;5096775;28;20037;-47
2021/11/12 06:49:22;;;;;;;;;;;18.10;72.70;;;;;;5096639;28;19924;-46
2021/11/12 06:51:50;;;;;;;;;;;18.10;72.60;;;;;;5088325;28;20011;-50
2021/11/12 06:54:17;;;;;;;;;;;18.10;72.60;;;;;;5084550;28;19928;-48
2021/11/12 06:56:44;;;;;;;;;;;18.10;72.60;;;;;;5096287;28;19924;-51
2021/11/12 06:59:11;;;;;;;;;;;18.10;72.60;;;;;;5096461;28;19924;-49
2021/11/12 07:01:38;;;;;;;;;;;18.20;72.70;;;;;;5096434;28;20040;-49
2021/11/12 07:04:05;;;;;;;;;;;18.20;72.70;;;;;;5078536;28;20363;-48
2021/11/12 07:06:35;;;;;;;;;;;18.20;72.70;;;;;;5091523;28;19932;-50
2021/11/12 07:09:06;;;;;;;;;;;18.20;72.70;;;;;;5080702;28;19925;-49
2021/11/12 07:11:34;;;;;;;;;;;18.20;72.70;;;;;;5096292;28;19924;-48
2021/11/12 07:14:04;;;;;;;;;;;18.20;72.70;;;;;;5096514;28;19932;-54
2021/11/12 07:16:32;;;;;;;;;;;18.20;72.60;;;;;;5096384;28;19990;-54
2021/11/12 07:19:00;;;;;;;;;;;18.20;72.70;;;;;;5096433;28;20546;-55
2021/11/12 07:21:28;;;;;;;;;;;18.20;72.60;;;;;;5093684;28;19924;-52
2021/11/12 07:24:00;;;;;;;;;;;18.10;72.50;;;;;;5079217;28;19928;-53
2021/11/12 07:26:28;;;;;;;;;;;18.20;72.60;;;;;;5096290;28;20341;-53
2021/11/12 07:28:55;;;;;;;;;;;18.20;72.60;;;;;;5095966;28;19925;-53
2021/11/12 07:31:40;;;;;;;;;;;18.20;72.60;;;;;;5096245;28;19930;-53
2021/11/12 07:34:08;;;;;;;;;;;18.20;72.60;;;;;;5094910;28;19924;-53
2021/11/12 07:36:37;;;;;;;;;;;18.20;72.50;;;;;;5093619;28;20010;-53
2021/11/12 07:39:09;;;;;;;;;;;18.20;72.50;;;;;;5077847;28;19928;-51
2021/11/12 07:44:17;;;;;;;;;;;18.20;72.50;;;;;;5095602;28;19931;-52
2021/11/12 07:46:57;;;;;;;;;;;18.20;72.50;;;;;;5095922;28;19931;-52
2021/11/12 07:49:24;;;;;;;;;;;18.20;72.50;;;;;;5079502;28;19924;-50
2021/11/12 07:51:52;;;;;;;;;;;18.20;72.40;;;;;;5092152;28;19928;-49
2021/11/12 07:54:19;;;;;;;;;;;18.20;72.40;;;;;;5078597;28;20022;-52
2021/11/12 07:56:48;;;;;;;;;;;18.20;72.50;;;;;;5095136;28;19973;-49
2021/11/12 07:59:15;;;;;;;;;;;18.20;72.40;;;;;;5095355;28;19973;-47
2021/11/12 08:01:42;;;;;;;;;;;18.20;72.40;;;;;;5095607;28;19928;-49
2021/11/12 08:04:10;;;;;;;;;;;18.20;72.40;;;;;;5095799;28;19935;-51
2021/11/12 08:06:38;;;;;;;;;;;18.20;72.40;;;;;;5095205;28;20383;-53
2021/11/12 08:09:10;;;;;;;;;;;18.20;72.40;;;;;;5074430;28;19938;-53
2021/11/12 08:11:45;;;;;;;;;;;18.20;72.40;;;;;;5095163;28;19935;-50
2021/11/12 08:14:19;;;;;;;;;;;18.20;72.30;;;;;;5095100;28;19924;-47
2021/11/12 08:16:55;;;;;;;;;;;18.20;72.40;;;;;;5094978;28;20424;-51
2021/11/12 08:22:01;;;;;;;;;;;18.20;72.30;;;;;;5095160;28;19970;-49
2021/11/12 08:43:30;;;;;;;;;;;18.20;72.20;;;;;;5012706;28;19933;-49
2021/11/12 08:45:39;;;;;;;;;;;18.20;72.20;;;;;;5007573;28;19926;-52
2021/11/12 08:48:12;;;;;;;;;;;18.20;72.20;;;;;;5012610;28;19973;-48
2021/11/12 08:50:39;;;;;;;;;;;18.30;72.30;;;;;;5012552;28;20480;-51
2021/11/12 08:53:08;;;;;;;;;;;18.30;72.30;;;;;;5011457;28;19925;-50
2021/11/12 08:55:36;;;;;;;;;;;18.30;72.30;;;;;;5011345;28;19925;-52
2021/11/12 08:58:05;;;;;;;;;;;18.30;72.20;;;;;;5012228;28;20401;-48
2021/11/12 09:00:34;;;;;;;;;;;18.30;72.20;;;;;;5012274;28;19925;-52
2021/11/12 09:03:02;;;;;;;;;;;18.30;72.20;;;;;;5012420;28;19932;-49
2021/11/12 09:05:29;;;;;;;;;;;18.30;72.20;;;;;;5012282;28;19929;-54
2021/11/12 09:07:57;;;;;;;;;;;18.30;72.20;;;;;;5029584;28;19924;-51
2021/11/12 09:10:26;;;;;;;;;;;18.30;72.10;;;;;;5079016;28;19924;-50
2021/11/12 09:13:05;;;;;;;;;;;18.30;72.10;;;;;;5094071;28;19931;-55
2021/11/12 09:15:33;;;;;;;;;;;18.30;72.10;;;;;;5094032;28;19928;-51
2021/11/12 09:18:01;;;;;;;;;;;18.30;72.10;;;;;;5093883;28;19928;-49
2021/11/12 09:20:28;;;;;;;;;;;18.30;72.00;;;;;;5094206;28;19924;-49
2021/11/12 09:22:57;;;;;;;;;;;18.30;72.10;;;;;;5090145;28;19924;-53
2021/11/12 09:25:24;;;;;;;;;;;18.30;72.00;;;;;;5077239;28;20387;-52
2021/11/12 09:27:51;;;;;;;;;;;18.30;72.00;;;;;;5093794;28;19931;-52
2021/11/12 09:30:23;;;;;;;;;;;18.30;72.00;;;;;;5093819;28;20407;-54
2021/11/12 09:32:51;;;;;;;;;;;18.30;72.00;;;;;;5094131;28;19925;-48
2021/11/12 09:35:18;;;;;;;;;;;18.30;72.00;;;;;;5094579;28;19924;-47
2021/11/12 09:37:45;;;;;;;;;;;18.30;72.00;;;;;;5093719;28;19924;-52
2021/11/12 09:40:13;;;;;;;;;;;18.30;71.90;;;;;;5074139;28;19924;-53
2021/11/12 09:42:41;;;;;;;;;;;18.30;71.90;;;;;;5093722;28;19924;-50
2021/11/12 09:45:10;;;;;;;;;;;18.30;71.90;;;;;;5093693;28;20380;-49
2021/11/12 09:47:37;;;;;;;;;;;18.30;71.90;;;;;;5093674;28;20383;-50
2021/11/12 09:50:06;;;;;;;;;;;18.30;71.90;;;;;;5059454;28;19924;-52
2021/11/12 09:52:33;;;;;;;;;;;18.30;71.90;;;;;;5075980;28;19970;-50
2021/11/12 09:55:01;;;;;;;;;;;18.30;71.90;;;;;;5075436;28;19928;-49
2021/11/12 09:57:30;;;;;;;;;;;18.40;71.90;;;;;;5092491;28;20375;-49
2021/11/12 09:59:59;;;;;;;;;;;18.30;71.80;;;;;;5097664;28;19963;-53
2021/11/12 10:02:28;;;;;;;;;;;18.40;71.90;;;;;;5097615;28;20379;-52
2021/11/12 10:04:55;;;;;;;;;;;18.40;71.90;;;;;;5097515;28;19924;-51
2021/11/12 10:07:23;;;;;;;;;;;18.40;71.90;;;;;;5097728;28;19973;-51
2021/11/12 10:10:20;;;;;;;;;;;18.40;71.80;;;;;;5064817;28;19935;-48
2021/11/12 10:12:48;;;;;;;;;;;18.40;71.80;;;;;;5084311;28;19928;-49
2021/11/12 10:15:17;;;;;;;;;;;18.40;71.80;;;;;;5097396;28;19927;-47
2021/11/12 10:17:46;;;;;;;;;;;18.40;71.80;;;;;;5097581;28;19924;-45
2021/11/12 10:20:18;;;;;;;;;;;18.40;71.80;;;;;;5097218;28;19977;-54
2021/11/12 10:22:46;;;;;;;;;;;18.40;71.80;;;;;;5097423;28;19932;-49
2021/11/12 10:25:14;;;;;;;;;;;18.40;71.80;;;;;;5062724;28;19928;-51
2021/11/12 10:27:51;;;;;;;;;;;18.40;71.80;;;;;;5094172;28;19928;-48
2021/11/12 10:30:23;;;;;;;;;;;18.40;71.80;;;;;;5097954;28;19932;-47
2021/11/12 10:32:53;;;;;;;;;;;18.40;71.70;;;;;;5096843;28;20339;-46
2021/11/12 10:35:19;;;;;;;;;;;18.40;71.80;;;;;;5096954;28;19924;-48
2021/11/12 10:37:47;;;;;;;;;;;18.40;71.70;;;;;;5096565;28;19931;-50
2021/11/12 10:40:16;;;;;;;;;;;18.40;71.70;;;;;;5063869;28;19928;-51
2021/11/12 10:42:44;;;;;;;;;;;18.40;71.70;;;;;;5058753;28;19928;-48
2021/11/12 10:45:15;;;;;;;;;;;18.40;71.70;;;;;;5076815;28;19936;-47
2021/11/12 10:47:50;;;;;;;;;;;18.40;71.70;;;;;;5076387;28;19970;-53
2021/11/12 10:50:18;;;;;;;;;;;18.40;71.70;;;;;;5076406;28;19924;-53
2021/11/12 10:52:45;;;;;;;;;;;18.40;71.70;;;;;;5076119;28;19925;-47
2021/11/12 10:55:21;;;;;;;;;;;18.40;71.70;;;;;;5075428;28;19924;-50
2021/11/12 10:57:50;;;;;;;;;;;18.40;71.70;;;;;;5091645;28;19923;-50
2021/11/12 11:00:20;;;;;;;;;;;18.40;71.70;;;;;;5096836;28;20287;-50
2021/11/12 11:02:47;;;;;;;;;;;18.40;71.70;;;;;;5096439;28;19924;-50
2021/11/12 11:05:16;;;;;;;;;;;18.40;71.70;;;;;;5097185;28;19963;-49
2021/11/12 11:07:46;;;;;;;;;;;18.40;71.70;;;;;;5096217;28;19931;-50
2021/11/12 11:10:21;;;;;;;;;;;18.40;71.60;;;;;;5082811;28;19924;-52
2021/11/12 11:12:48;;;;;;;;;;;18.40;71.70;;;;;;5090090;28;19969;-54
2021/11/12 11:15:27;;;;;;;;;;;18.40;71.60;;;;;;5096224;28;19924;-53
2021/11/12 11:18:07;;;;;;;;;;;18.40;71.70;;;;;;5096960;28;19928;-54
2021/11/12 11:20:34;;;;;;;;;;;18.40;71.60;;;;;;5096434;28;19928;-52
2021/11/12 11:23:01;;;;;;;;;;;18.40;71.60;;;;;;5096162;28;20337;-53
2021/11/12 11:25:34;;;;;;;;;;;18.40;71.60;;;;;;5082330;28;19925;-50
2021/11/12 11:28:02;;;;;;;;;;;18.40;71.60;;;;;;5089973;28;19932;-48
2021/11/12 11:30:29;;;;;;;;;;;18.40;71.60;;;;;;5078012;28;19931;-51
2021/11/12 11:32:56;;;;;;;;;;;18.40;71.60;;;;;;5096227;28;19931;-53
2021/11/12 11:35:24;;;;;;;;;;;18.40;71.60;;;;;;5077922;28;19924;-49
2021/11/12 11:37:52;;;;;;;;;;;18.40;71.60;;;;;;5095516;28;20287;-55
2021/11/12 11:40:20;;;;;;;;;;;18.40;71.60;;;;;;5085143;28;19931;-54
2021/11/12 11:42:47;;;;;;;;;;;18.40;71.60;;;;;;5086671;28;19924;-45
2021/11/12 11:45:16;;;;;;;;;;;18.40;71.60;;;;;;5095965;28;19934;-53
2021/11/12 11:47:44;;;;;;;;;;;18.40;71.60;;;;;;5095555;28;19924;-51
2021/11/12 11:50:22;;;;;;;;;;;18.40;71.60;;;;;;5077635;28;20290;-51
2021/11/12 11:52:49;;;;;;;;;;;18.40;71.60;;;;;;5095372;28;19924;-50
2021/11/12 11:55:35;;;;;;;;;;;18.40;71.60;;;;;;5086545;28;19928;-51
2021/11/12 11:58:20;;;;;;;;;;;18.40;71.60;;;;;;5086750;28;19924;-50
2021/11/12 12:00:47;;;;;;;;;;;18.40;71.60;;;;;;5095285;28;19978;-50
2021/11/12 12:03:20;;;;;;;;;;;18.40;71.60;;;;;;5077440;28;19975;-50
2021/11/12 12:06:13;;;;;;;;;;;18.40;71.60;;;;;;5077170;28;20383;-49
2021/11/12 12:08:49;;;;;;;;;;;18.40;71.60;;;;;;5092450;28;19924;-51
2021/11/12 12:11:20;;;;;;;;;;;18.40;71.60;;;;;;5079831;28;20283;-50
2021/11/12 12:14:08;;;;;;;;;;;18.40;71.60;;;;;;5091383;28;19970;-54
2021/11/12 12:16:37;;;;;;;;;;;18.40;72.30;;;;;;5094910;28;19931;-51
2021/11/12 12:19:07;;;;;;;;;;;18.40;71.60;;;;;;5095217;28;19924;-47
2021/11/12 12:36:09;;;;;;;;;;;18.40;71.50;;;;;;5095052;28;19924;-50
2021/11/12 13:20:11;;;;;;;;;;;18.40;71.50;;;;;;5094235;28;19924;-45
2021/11/12 13:22:37;;;;;;;;;;;18.40;71.50;;;;;;5093848;28;19924;-46
2021/11/12 13:25:05;;;;;;;;;;;18.40;71.50;;;;;;5093902;28;19977;-48
2021/11/12 13:27:32;;;;;;;;;;;18.40;71.60;;;;;;5074629;28;20453;-49
2021/11/12 13:29:59;;;;;;;;;;;18.40;71.60;;;;;;5093512;28;19931;-46
2021/11/12 13:32:26;;;;;;;;;;;18.40;71.60;;;;;;5093038;28;19924;-49
2021/11/12 13:34:53;;;;;;;;;;;18.40;71.60;;;;;;5093799;28;19970;-50
2021/11/12 13:37:23;;;;;;;;;;;18.40;71.60;;;;;;5093914;28;19932;-49
2021/11/12 13:40:00;;;;;;;;;;;18.40;71.60;;;;;;5093683;28;19924;-53
2021/11/12 13:42:28;;;;;;;;;;;18.40;71.60;;;;;;5077443;28;20296;-49
2021/11/12 13:44:55;;;;;;;;;;;18.40;71.60;;;;;;5091686;28;19924;-50
2021/11/12 13:47:23;;;;;;;;;;;18.40;71.60;;;;;;5094011;28;19940;-51
2021/11/12 13:49:53;;;;;;;;;;;18.40;71.70;;;;;;5093981;28;20341;-52
2021/11/12 13:52:23;;;;;;;;;;;18.40;71.70;;;;;;5093698;28;19931;-55
2021/11/12 13:54:52;;;;;;;;;;;18.40;71.70;;;;;;5093470;28;19993;-51
2021/11/12 13:57:21;;;;;;;;;;;18.40;71.70;;;;;;5061718;28;20388;-55
2021/11/12 13:59:49;;;;;;;;;;;18.40;71.70;;;;;;5088985;28;19931;-49
2021/11/12 14:02:16;;;;;;;;;;;18.40;71.70;;;;;;5093580;28;19923;-52
2021/11/12 14:04:43;;;;;;;;;;;18.40;71.70;;;;;;5093851;28;20299;-46
2021/11/12 14:07:18;;;;;;;;;;;18.30;71.70;;;;;;5093719;28;19924;-47
2021/11/12 14:09:45;;;;;;;;;;;18.30;71.70;;;;;;5093559;28;19984;-47
2021/11/12 14:12:13;;;;;;;;;;;18.40;71.80;;;;;;5081823;28;19928;-50
2021/11/12 14:14:42;;;;;;;;;;;18.30;71.70;;;;;;5086407;28;20321;-50
2021/11/12 14:17:19;;;;;;;;;;;18.40;72.50;;;;;;5093779;28;20353;-48
2021/11/12 14:19:55;;;;;;;;;;;18.30;71.70;;;;;;5093350;28;19928;-49
2021/11/12 14:28:03;;;;;;;;;;;18.30;71.80;;;;;;5015831;28;19929;-48
2021/11/12 14:31:29;;;;;;;;;;;18.30;71.90;;;;;;5010573;28;19925;-46
2021/11/12 14:42:48;;;;;;;;;;;18.30;72.00;;;;;;4971662;28;19926;-50
2021/11/12 14:45:21;;;;;;;;;;;18.30;72.00;;;;;;4970428;28;19926;-49
2021/11/12 14:48:11;;;;;;;;;;;18.30;72.00;;;;;;4975819;28;19927;-52
2021/11/12 14:50:56;;;;;;;;;;;18.30;72.00;;;;;;4975660;28;19926;-50
2021/11/12 14:55:59;;;;;;;;;;;18.20;72.00;;;;;;4975384;28;19926;-49
2021/11/12 14:58:26;;;;;;;;;;;18.20;72.00;;;;;;4974720;28;19973;-46
2021/11/12 15:01:00;;;;;;;;;;;18.20;72.00;;;;;;4964157;28;20008;-50
2021/11/12 15:03:27;;;;;;;;;;;18.20;72.10;;;;;;5014532;28;19932;-53
2021/11/12 15:05:55;;;;;;;;;;;18.20;72.10;;;;;;5014402;28;19926;-52
2021/11/12 15:08:24;;;;;;;;;;;18.20;72.00;;;;;;5014143;28;19933;-52
2021/11/12 15:10:52;;;;;;;;;;;18.20;72.10;;;;;;5014273;28;19926;-54
2021/11/12 15:13:19;;;;;;;;;;;18.20;72.10;;;;;;5039306;28;19925;-55
2021/11/12 15:15:47;;;;;;;;;;;18.20;72.10;;;;;;5072644;28;19929;-53
2021/11/12 15:18:17;;;;;;;;;;;18.20;72.10;;;;;;5076205;28;20291;-52
2021/11/12 15:20:45;;;;;;;;;;;18.20;72.20;;;;;;5107792;28;19939;-54
2021/11/12 15:26:00;;;;;;;;;;;18.20;72.20;;;;;;5076574;28;20284;-52
2021/11/12 15:31:18;;;;;;;;;;;18.20;72.20;;;;;;5074600;28;19929;-53
2021/11/12 15:33:50;;;;;;;;;;;18.20;72.20;;;;;;5075738;28;20387;-50
2021/11/12 15:36:18;;;;;;;;;;;18.20;72.20;;;;;;5075707;28;20432;-51
2021/11/12 15:38:50;;;;;;;;;;;18.20;72.20;;;;;;5075725;28;19928;-47
2021/11/12 15:44:16;;;;;;;;;;;18.20;72.30;;;;;;5057152;28;19925;-52
2021/11/12 15:46:45;;;;;;;;;;;18.20;72.30;;;;;;5075458;28;19932;-49
2021/11/12 15:49:17;;;;;;;;;;;18.20;72.30;;;;;;5075387;28;19978;-52
2021/11/12 15:51:51;;;;;;;;;;;18.20;72.30;;;;;;5075594;28;19924;-48
2021/11/12 15:57:14;;;;;;;;;;;18.20;72.30;;;;;;5091943;28;19928;-47
2021/11/12 16:18:17;;;;;;;;;;;18.20;72.40;;;;;;5032990;28;19932;-46
2021/11/12 16:26:02;;;;;;;;;;;18.20;72.40;;;;;;5032711;28;20324;-49
2021/11/12 16:28:33;;;;;;;;;;;18.20;72.40;;;;;;5024374;28;20262;-51
2021/11/12 16:31:03;;;;;;;;;;;18.20;72.40;;;;;;5008087;28;19925;-46
2021/11/12 16:33:31;;;;;;;;;;;18.20;72.40;;;;;;5032588;28;19972;-46
2021/11/12 16:36:05;;;;;;;;;;;18.20;72.40;;;;;;5032655;28;19932;-46
2021/11/12 16:38:34;;;;;;;;;;;18.20;72.50;;;;;;5032420;28;20059;-46
2021/11/12 16:41:08;;;;;;;;;;;18.20;72.40;;;;;;5032329;28;19925;-44
2021/11/12 16:46:21;;;;;;;;;;;18.20;72.50;;;;;;5023322;28;19972;-44
2021/11/12 16:49:03;;;;;;;;;;;18.20;72.50;;;;;;5032458;28;19972;-48
2021/11/12 17:04:30;;;;;;;;;;;18.10;72.40;;;;;;5012375;28;19929;-51
2021/11/12 17:07:07;;;;;;;;;;;18.10;72.40;;;;;;5012184;28;19979;-53
2021/11/12 17:12:46;;;;;;;;;;;18.10;72.40;;;;;;5012304;28;19926;-49
2021/11/12 17:18:00;;;;;;;;;;;18.10;72.40;;;;;;5012159;28;19926;-47
2021/11/12 17:47:40;;;;;;;;;;;18.10;72.50;;;;;;5092051;28;19924;-47
2021/11/12 17:50:35;;;;;;;;;;;18.10;72.50;;;;;;5093753;28;20408;-53
2021/11/12 17:53:23;;;;;;;;;;;18.10;72.50;;;;;;5093562;28;19924;-51
2021/11/12 18:04:11;;;;;;;;;;;18.10;72.50;;;;;;5093584;28;20014;-53
2021/11/12 18:07:10;;;;;;;;;;;18.10;72.50;;;;;;5093487;28;19946;-49
2021/11/12 21:46:34;;;;;;;;;;;18.10;72.70;;;;;;5070829;28;19928;-52
2021/11/12 21:49:01;;;;;;;;;;;18.10;72.90;;;;;;5081999;28;19978;-52
2021/11/12 21:51:31;;;;;;;;;;;18.10;72.70;;;;;;5093701;28;19931;-49
2021/11/12 21:54:01;;;;;;;;;;;18.10;72.70;;;;;;5095397;28;19998;-49
2021/11/12 21:56:28;;;;;;;;;;;18.10;72.70;;;;;;5098016;28;20334;-49
2021/11/12 21:58:55;;;;;;;;;;;18.10;72.70;;;;;;5098082;28;19931;-49
2021/11/12 22:01:23;;;;;;;;;;;18.10;72.70;;;;;;5079759;28;19928;-45
2021/11/12 22:03:50;;;;;;;;;;;18.10;72.60;;;;;;5082467;28;19924;-44
2021/11/12 22:06:18;;;;;;;;;;;18.10;72.60;;;;;;5097544;28;19939;-47
2021/11/12 22:08:45;;;;;;;;;;;18.10;72.60;;;;;;5097927;28;19927;-46
2021/11/12 22:11:12;;;;;;;;;;;18.10;72.70;;;;;;5097882;28;19949;-44
2021/11/12 22:13:39;;;;;;;;;;;18.10;72.70;;;;;;5097536;28;19924;-49
2021/11/12 22:16:07;;;;;;;;;;;18.10;72.60;;;;;;5097790;28;19928;-48
2021/11/12 22:18:37;;;;;;;;;;;18.10;72.60;;;;;;5082845;28;19931;-47
2021/11/12 22:21:05;;;;;;;;;;;18.10;72.60;;;;;;5097349;28;19954;-51
2021/11/12 22:23:33;;;;;;;;;;;18.10;72.60;;;;;;5097507;28;19924;-49
2021/11/12 22:26:01;;;;;;;;;;;18.10;72.60;;;;;;5097574;28;19977;-51
2021/11/12 22:28:28;;;;;;;;;;;18.10;72.70;;;;;;5097257;28;19924;-47
2021/11/12 22:30:55;;;;;;;;;;;18.10;72.60;;;;;;5097163;28;19975;-47
2021/11/12 22:33:22;;;;;;;;;;;18.10;72.60;;;;;;5082660;28;19924;-48
2021/11/12 22:35:49;;;;;;;;;;;18.10;72.60;;;;;;5097198;28;20361;-46
2021/11/12 22:38:16;;;;;;;;;;;18.10;72.60;;;;;;5096951;28;19977;-50
2021/11/12 22:40:45;;;;;;;;;;;18.10;72.60;;;;;;5097237;28;19930;-46
2021/11/12 22:43:12;;;;;;;;;;;18.10;72.60;;;;;;5096962;28;19931;-54
2021/11/12 22:45:38;;;;;;;;;;;18.10;72.60;;;;;;5097216;28;19924;-54
2021/11/12 22:48:06;;;;;;;;;;;18.10;72.60;;;;;;5086417;28;19931;-54
2021/11/12 22:50:33;;;;;;;;;;;18.10;72.70;;;;;;5092967;28;19924;-51
2021/11/12 22:53:00;;;;;;;;;;;18.10;72.60;;;;;;5078712;28;19950;-54
2021/11/12 22:55:27;;;;;;;;;;;18.10;72.60;;;;;;5096575;28;19924;-52
2021/11/12 22:57:54;;;;;;;;;;;18.10;72.60;;;;;;5097542;28;20317;-55
2021/11/12 23:00:24;;;;;;;;;;;18.10;72.60;;;;;;5096928;28;19924;-53
2021/11/12 23:02:51;;;;;;;;;;;18.10;72.60;;;;;;5090043;28;19925;-53
2021/11/12 23:05:19;;;;;;;;;;;18.10;72.70;;;;;;5089078;28;19978;-55
2021/11/12 23:07:46;;;;;;;;;;;18.10;72.60;;;;;;5096687;28;19924;-52
2021/11/12 23:10:13;;;;;;;;;;;18.10;72.60;;;;;;5096464;28;20379;-53
2021/11/12 23:12:40;;;;;;;;;;;18.10;72.60;;;;;;5096722;28;19978;-51
2021/11/12 23:15:07;;;;;;;;;;;18.10;72.70;;;;;;5096361;28;19924;-48
2021/11/12 23:17:34;;;;;;;;;;;18.10;72.60;;;;;;5075681;28;19924;-51
2021/11/12 23:20:01;;;;;;;;;;;18.10;72.70;;;;;;5085204;28;20443;-46
2021/11/12 23:22:28;;;;;;;;;;;18.10;72.60;;;;;;5096172;28;20395;-50
2021/11/12 23:24:54;;;;;;;;;;;18.10;72.60;;;;;;5095982;28;20444;-51
2021/11/12 23:27:41;;;;;;;;;;;18.10;72.60;;;;;;5096102;28;19978;-50
2021/11/12 23:30:08;;;;;;;;;;;18.10;72.60;;;;;;5096374;28;19924;-52
2021/11/12 23:32:35;;;;;;;;;;;18.10;72.70;;;;;;5094469;28;19924;-51
2021/11/12 23:35:03;;;;;;;;;;;18.10;72.70;;;;;;5083968;28;19924;-48
2021/11/12 23:37:31;;;;;;;;;;;18.10;72.70;;;;;;5096137;28;19927;-47
2021/11/12 23:39:58;;;;;;;;;;;18.10;72.70;;;;;;5096179;28;20036;-49
2021/11/12 23:42:25;;;;;;;;;;;18.10;72.70;;;;;;5078209;28;19928;-48
2021/11/12 23:44:52;;;;;;;;;;;18.10;72.70;;;;;;5096077;28;20007;-51
2021/11/12 23:47:19;;;;;;;;;;;18.10;72.60;;;;;;5096046;28;19931;-46
2021/11/12 23:49:46;;;;;;;;;;;18.10;72.60;;;;;;5081700;28;19950;-51
2021/11/12 23:52:17;;;;;;;;;;;18.10;72.60;;;;;;5078822;28;19928;-51
2021/11/12 23:54:45;;;;;;;;;;;18.10;72.70;;;;;;5077443;28;19978;-46
2021/11/12 23:57:12;;;;;;;;;;;18.10;72.60;;;;;;5095848;28;19924;-52
2021/11/12 23:59:39;;;;;;;;;;;18.10;72.70;;;;;;5095789;28;19950;-53
